sensor_id;sensor_type;location;lat;lon;timestamp;P1;durP1;ratioP1;P2;durP2;ratioP2
10341;SDS011;5216;54.602;18.356;2022-07-03T00:01:53;5.45;;;3.20;;
10341;SDS011;5216;54.602;18.356;2022-07-03T00:04:19;4.23;;;2.77;;
10341;SDS011;5216;54.602;18.356;2022-07-03T00:06:46;3.60;;;2.80;;
10341;SDS011;5216;54.602;18.356;2022-07-03T00:09:13;3.40;;;2.90;;
10341;SDS011;5216;54.602;18.356;2022-07-03T00:11:40;5.65;;;3.25;;
10341;SDS011;5216;54.602;18.356;2022-07-03T00:14:06;4.88;;;2.67;;
10341;SDS011;5216;54.602;18.356;2022-07-03T00:16:33;3.55;;;2.30;;
10341;SDS011;5216;54.602;18.356;2022-07-03T00:18:59;2.65;;;2.20;;
10341;SDS011;5216;54.602;18.356;2022-07-03T00:21:34;2.95;;;2.20;;
10341;SDS011;5216;54.602;18.356;2022-07-03T00:24:12;3.45;;;2.30;;
10341;SDS011;5216;54.602;18.356;2022-07-03T00:26:40;5.07;;;2.58;;
10341;SDS011;5216;54.602;18.356;2022-07-03T00:29:08;4.00;;;2.33;;
10341;SDS011;5216;54.602;18.356;2022-07-03T00:31:35;4.25;;;2.17;;
10341;SDS011;5216;54.602;18.356;2022-07-03T00:34:02;4.03;;;2.95;;
10341;SDS011;5216;54.602;18.356;2022-07-03T00:36:29;5.30;;;2.45;;
10341;SDS011;5216;54.602;18.356;2022-07-03T00:38:56;5.47;;;2.92;;
10341;SDS011;5216;54.602;18.356;2022-07-03T00:41:24;4.97;;;3.03;;
10341;SDS011;5216;54.602;18.356;2022-07-03T00:43:51;4.10;;;2.83;;
10341;SDS011;5216;54.602;18.356;2022-07-03T00:46:17;4.68;;;2.72;;
10341;SDS011;5216;54.602;18.356;2022-07-03T00:48:47;4.05;;;2.60;;
10341;SDS011;5216;54.602;18.356;2022-07-03T00:51:14;6.28;;;2.85;;
10341;SDS011;5216;54.602;18.356;2022-07-03T00:53:44;4.25;;;2.47;;
10341;SDS011;5216;54.602;18.356;2022-07-03T00:56:13;2.38;;;2.17;;
10341;SDS011;5216;54.602;18.356;2022-07-03T00:58:40;3.08;;;2.15;;
10341;SDS011;5216;54.602;18.356;2022-07-03T01:01:07;3.35;;;2.28;;
10341;SDS011;5216;54.602;18.356;2022-07-03T01:03:35;4.45;;;2.60;;
10341;SDS011;5216;54.602;18.356;2022-07-03T01:06:10;3.72;;;2.35;;
10341;SDS011;5216;54.602;18.356;2022-07-03T01:08:47;3.75;;;3.35;;
10341;SDS011;5216;54.602;18.356;2022-07-03T01:11:21;4.60;;;3.55;;
10341;SDS011;5216;54.602;18.356;2022-07-03T01:16:25;4.13;;;2.92;;
10341;SDS011;5216;54.602;18.356;2022-07-03T01:18:54;3.25;;;2.78;;
10341;SDS011;5216;54.602;18.356;2022-07-03T01:24:28;4.88;;;2.70;;
10341;SDS011;5216;54.602;18.356;2022-07-03T01:26:59;3.40;;;2.40;;
10341;SDS011;5216;54.602;18.356;2022-07-03T01:29:30;3.47;;;2.83;;
10341;SDS011;5216;54.602;18.356;2022-07-03T01:31:58;3.28;;;2.90;;
10341;SDS011;5216;54.602;18.356;2022-07-03T01:34:25;3.83;;;3.45;;
10341;SDS011;5216;54.602;18.356;2022-07-03T01:36:55;4.95;;;3.70;;
10341;SDS011;5216;54.602;18.356;2022-07-03T01:39:24;4.38;;;3.75;;
10341;SDS011;5216;54.602;18.356;2022-07-03T01:42:12;3.45;;;3.15;;
10341;SDS011;5216;54.602;18.356;2022-07-03T01:44:40;5.95;;;3.70;;
10341;SDS011;5216;54.602;18.356;2022-07-03T01:47:07;5.60;;;2.95;;
10341;SDS011;5216;54.602;18.356;2022-07-03T01:49:33;3.53;;;2.70;;
10341;SDS011;5216;54.602;18.356;2022-07-03T01:52:01;5.05;;;2.63;;
10341;SDS011;5216;54.602;18.356;2022-07-03T01:54:28;3.08;;;2.47;;
10341;SDS011;5216;54.602;18.356;2022-07-03T01:56:56;5.23;;;2.80;;
10341;SDS011;5216;54.602;18.356;2022-07-03T01:59:24;5.17;;;2.60;;
10341;SDS011;5216;54.602;18.356;2022-07-03T02:01:52;4.80;;;3.00;;
10341;SDS011;5216;54.602;18.356;2022-07-03T02:04:22;6.27;;;2.80;;
10341;SDS011;5216;54.602;18.356;2022-07-03T02:09:17;3.10;;;2.30;;
10341;SDS011;5216;54.602;18.356;2022-07-03T02:11:51;6.15;;;2.60;;
10341;SDS011;5216;54.602;18.356;2022-07-03T02:14:18;3.97;;;2.30;;
10341;SDS011;5216;54.602;18.356;2022-07-03T02:16:49;3.83;;;2.37;;
10341;SDS011;5216;54.602;18.356;2022-07-03T02:19:17;4.13;;;2.83;;
10341;SDS011;5216;54.602;18.356;2022-07-03T02:21:49;4.68;;;3.60;;
10341;SDS011;5216;54.602;18.356;2022-07-03T02:24:21;3.87;;;3.20;;
10341;SDS011;5216;54.602;18.356;2022-07-03T02:26:59;3.73;;;3.33;;
10341;SDS011;5216;54.602;18.356;2022-07-03T02:29:30;3.77;;;3.10;;
10341;SDS011;5216;54.602;18.356;2022-07-03T02:31:59;4.70;;;3.53;;
10341;SDS011;5216;54.602;18.356;2022-07-03T02:34:26;5.77;;;3.50;;
10341;SDS011;5216;54.602;18.356;2022-07-03T02:36:56;3.43;;;3.13;;
10341;SDS011;5216;54.602;18.356;2022-07-03T02:39:32;5.53;;;3.73;;
10341;SDS011;5216;54.602;18.356;2022-07-03T02:42:04;4.70;;;4.03;;
10341;SDS011;5216;54.602;18.356;2022-07-03T02:44:41;5.67;;;3.70;;
10341;SDS011;5216;54.602;18.356;2022-07-03T02:47:20;5.33;;;3.87;;
10341;SDS011;5216;54.602;18.356;2022-07-03T02:50:03;4.20;;;3.40;;
10341;SDS011;5216;54.602;18.356;2022-07-03T02:52:32;5.80;;;3.87;;
10341;SDS011;5216;54.602;18.356;2022-07-03T02:55:00;5.03;;;3.93;;
10341;SDS011;5216;54.602;18.356;2022-07-03T02:57:36;4.63;;;3.60;;
10341;SDS011;5216;54.602;18.356;2022-07-03T03:00:04;4.67;;;3.90;;
10341;SDS011;5216;54.602;18.356;2022-07-03T03:02:51;5.10;;;3.80;;
10341;SDS011;5216;54.602;18.356;2022-07-03T03:07:58;5.13;;;4.00;;
10341;SDS011;5216;54.602;18.356;2022-07-03T03:10:25;4.27;;;3.60;;
10341;SDS011;5216;54.602;18.356;2022-07-03T03:12:56;5.38;;;3.80;;
10341;SDS011;5216;54.602;18.356;2022-07-03T03:15:24;5.90;;;3.80;;
10341;SDS011;5216;54.602;18.356;2022-07-03T03:17:55;5.77;;;3.93;;
10341;SDS011;5216;54.602;18.356;2022-07-03T03:20:22;4.70;;;3.93;;
10341;SDS011;5216;54.602;18.356;2022-07-03T03:25:20;5.37;;;3.40;;
10341;SDS011;5216;54.602;18.356;2022-07-03T03:27:46;6.17;;;3.67;;
10341;SDS011;5216;54.602;18.356;2022-07-03T03:30:12;4.73;;;3.20;;
10341;SDS011;5216;54.602;18.356;2022-07-03T03:32:39;3.72;;;3.17;;
10341;SDS011;5216;54.602;18.356;2022-07-03T03:35:06;4.33;;;3.40;;
10341;SDS011;5216;54.602;18.356;2022-07-03T03:37:33;3.40;;;3.00;;
10341;SDS011;5216;54.602;18.356;2022-07-03T03:40:02;3.77;;;3.00;;
10341;SDS011;5216;54.602;18.356;2022-07-03T03:42:29;4.03;;;2.93;;
10341;SDS011;5216;54.602;18.356;2022-07-03T03:44:55;3.93;;;3.17;;
10341;SDS011;5216;54.602;18.356;2022-07-03T03:47:21;3.27;;;2.77;;
10341;SDS011;5216;54.602;18.356;2022-07-03T03:49:48;3.50;;;3.20;;
10341;SDS011;5216;54.602;18.356;2022-07-03T03:52:14;4.22;;;3.30;;
10341;SDS011;5216;54.602;18.356;2022-07-03T03:54:41;3.42;;;2.70;;
10341;SDS011;5216;54.602;18.356;2022-07-03T03:57:23;3.85;;;3.30;;
10341;SDS011;5216;54.602;18.356;2022-07-03T03:59:50;6.77;;;3.47;;
10341;SDS011;5216;54.602;18.356;2022-07-03T04:02:17;3.72;;;2.90;;
10341;SDS011;5216;54.602;18.356;2022-07-03T04:04:44;6.13;;;3.00;;
10341;SDS011;5216;54.602;18.356;2022-07-03T04:07:11;5.60;;;3.20;;
10341;SDS011;5216;54.602;18.356;2022-07-03T04:09:37;5.07;;;3.05;;
10341;SDS011;5216;54.602;18.356;2022-07-03T04:12:04;4.57;;;3.13;;
10341;SDS011;5216;54.602;18.356;2022-07-03T04:14:31;5.32;;;3.25;;
10341;SDS011;5216;54.602;18.356;2022-07-03T04:16:57;5.80;;;3.13;;
10341;SDS011;5216;54.602;18.356;2022-07-03T04:19:23;5.33;;;3.40;;
10341;SDS011;5216;54.602;18.356;2022-07-03T04:21:50;4.63;;;3.30;;
10341;SDS011;5216;54.602;18.356;2022-07-03T04:24:18;7.03;;;3.53;;
10341;SDS011;5216;54.602;18.356;2022-07-03T04:26:45;4.50;;;3.10;;
10341;SDS011;5216;54.602;18.356;2022-07-03T04:29:11;3.97;;;3.00;;
10341;SDS011;5216;54.602;18.356;2022-07-03T04:31:38;3.67;;;2.80;;
10341;SDS011;5216;54.602;18.356;2022-07-03T04:34:04;3.42;;;3.13;;
10341;SDS011;5216;54.602;18.356;2022-07-03T04:36:30;3.00;;;2.70;;
10341;SDS011;5216;54.602;18.356;2022-07-03T04:38:57;5.70;;;3.10;;
10341;SDS011;5216;54.602;18.356;2022-07-03T04:41:23;4.28;;;2.60;;
10341;SDS011;5216;54.602;18.356;2022-07-03T04:43:50;3.73;;;2.73;;
10341;SDS011;5216;54.602;18.356;2022-07-03T04:46:16;2.72;;;2.50;;
10341;SDS011;5216;54.602;18.356;2022-07-03T04:48:43;4.57;;;2.75;;
10341;SDS011;5216;54.602;18.356;2022-07-03T04:51:10;4.07;;;2.63;;
10341;SDS011;5216;54.602;18.356;2022-07-03T04:53:36;4.25;;;2.72;;
10341;SDS011;5216;54.602;18.356;2022-07-03T04:56:03;3.37;;;2.90;;
10341;SDS011;5216;54.602;18.356;2022-07-03T04:58:29;2.87;;;2.67;;
10341;SDS011;5216;54.602;18.356;2022-07-03T05:00:56;3.83;;;2.75;;
10341;SDS011;5216;54.602;18.356;2022-07-03T05:03:22;5.80;;;2.83;;
10341;SDS011;5216;54.602;18.356;2022-07-03T05:05:49;5.47;;;2.80;;
10341;SDS011;5216;54.602;18.356;2022-07-03T05:08:15;4.38;;;2.30;;
10341;SDS011;5216;54.602;18.356;2022-07-03T05:10:42;4.72;;;2.70;;
10341;SDS011;5216;54.602;18.356;2022-07-03T05:13:08;4.60;;;2.83;;
10341;SDS011;5216;54.602;18.356;2022-07-03T05:15:35;3.78;;;2.67;;
10341;SDS011;5216;54.602;18.356;2022-07-03T05:18:01;4.05;;;3.50;;
10341;SDS011;5216;54.602;18.356;2022-07-03T05:20:28;3.83;;;2.80;;
10341;SDS011;5216;54.602;18.356;2022-07-03T05:22:58;4.07;;;2.80;;
10341;SDS011;5216;54.602;18.356;2022-07-03T05:25:26;5.28;;;2.97;;
10341;SDS011;5216;54.602;18.356;2022-07-03T05:27:53;3.50;;;2.60;;
10341;SDS011;5216;54.602;18.356;2022-07-03T05:30:21;4.15;;;2.53;;
10341;SDS011;5216;54.602;18.356;2022-07-03T05:32:47;3.38;;;2.65;;
10341;SDS011;5216;54.602;18.356;2022-07-03T05:35:14;4.28;;;2.72;;
10341;SDS011;5216;54.602;18.356;2022-07-03T05:37:40;2.67;;;2.10;;
10341;SDS011;5216;54.602;18.356;2022-07-03T05:40:07;3.25;;;2.53;;
10341;SDS011;5216;54.602;18.356;2022-07-03T05:42:34;5.53;;;2.78;;
10341;SDS011;5216;54.602;18.356;2022-07-03T05:45:01;3.20;;;2.10;;
10341;SDS011;5216;54.602;18.356;2022-07-03T05:47:28;4.60;;;2.72;;
10341;SDS011;5216;54.602;18.356;2022-07-03T05:49:54;6.22;;;2.58;;
10341;SDS011;5216;54.602;18.356;2022-07-03T05:52:21;6.20;;;3.25;;
10341;SDS011;5216;54.602;18.356;2022-07-03T05:54:49;4.25;;;2.47;;
10341;SDS011;5216;54.602;18.356;2022-07-03T05:57:15;4.07;;;2.20;;
10341;SDS011;5216;54.602;18.356;2022-07-03T05:59:42;3.25;;;2.38;;
10341;SDS011;5216;54.602;18.356;2022-07-03T06:02:08;2.67;;;2.03;;
10341;SDS011;5216;54.602;18.356;2022-07-03T06:04:35;3.13;;;2.20;;
10341;SDS011;5216;54.602;18.356;2022-07-03T06:07:01;3.55;;;2.10;;
10341;SDS011;5216;54.602;18.356;2022-07-03T06:09:28;2.63;;;2.03;;
10341;SDS011;5216;54.602;18.356;2022-07-03T06:11:54;3.38;;;2.50;;
10341;SDS011;5216;54.602;18.356;2022-07-03T06:14:21;4.70;;;2.50;;
10341;SDS011;5216;54.602;18.356;2022-07-03T06:16:47;3.63;;;2.58;;
10341;SDS011;5216;54.602;18.356;2022-07-03T06:19:14;3.45;;;2.55;;
10341;SDS011;5216;54.602;18.356;2022-07-03T06:21:40;5.38;;;2.45;;
10341;SDS011;5216;54.602;18.356;2022-07-03T06:24:07;2.95;;;1.88;;
10341;SDS011;5216;54.602;18.356;2022-07-03T06:26:33;2.95;;;2.15;;
10341;SDS011;5216;54.602;18.356;2022-07-03T06:29:00;5.30;;;1.90;;
10341;SDS011;5216;54.602;18.356;2022-07-03T06:31:26;3.03;;;1.75;;
10341;SDS011;5216;54.602;18.356;2022-07-03T06:33:53;3.42;;;1.70;;
10341;SDS011;5216;54.602;18.356;2022-07-03T06:36:19;2.38;;;1.50;;
10341;SDS011;5216;54.602;18.356;2022-07-03T06:38:46;2.20;;;1.40;;
10341;SDS011;5216;54.602;18.356;2022-07-03T06:41:13;11.90;;;9.13;;
10341;SDS011;5216;54.602;18.356;2022-07-03T06:43:39;3.95;;;1.70;;
10341;SDS011;5216;54.602;18.356;2022-07-03T06:46:06;1.23;;;1.10;;
10341;SDS011;5216;54.602;18.356;2022-07-03T06:48:32;3.67;;;1.23;;
10341;SDS011;5216;54.602;18.356;2022-07-03T06:50:59;1.55;;;1.17;;
10341;SDS011;5216;54.602;18.356;2022-07-03T06:53:25;2.83;;;1.70;;
10341;SDS011;5216;54.602;18.356;2022-07-03T06:55:52;8.63;;;5.85;;
10341;SDS011;5216;54.602;18.356;2022-07-03T06:58:18;2.35;;;1.48;;
10341;SDS011;5216;54.602;18.356;2022-07-03T07:00:45;2.95;;;1.50;;
10341;SDS011;5216;54.602;18.356;2022-07-03T07:03:11;4.03;;;1.90;;
10341;SDS011;5216;54.602;18.356;2022-07-03T07:05:38;2.13;;;1.20;;
10341;SDS011;5216;54.602;18.356;2022-07-03T07:08:04;3.38;;;1.27;;
10341;SDS011;5216;54.602;18.356;2022-07-03T07:10:31;1.67;;;1.20;;
10341;SDS011;5216;54.602;18.356;2022-07-03T07:12:57;2.60;;;1.30;;
10341;SDS011;5216;54.602;18.356;2022-07-03T07:15:24;1.67;;;1.20;;
10341;SDS011;5216;54.602;18.356;2022-07-03T07:17:50;1.75;;;1.20;;
10341;SDS011;5216;54.602;18.356;2022-07-03T07:20:17;1.35;;;1.10;;
10341;SDS011;5216;54.602;18.356;2022-07-03T07:22:43;3.35;;;1.50;;
10341;SDS011;5216;54.602;18.356;2022-07-03T07:25:10;1.58;;;1.27;;
10341;SDS011;5216;54.602;18.356;2022-07-03T07:27:36;1.67;;;1.25;;
10341;SDS011;5216;54.602;18.356;2022-07-03T07:30:03;2.83;;;1.45;;
10341;SDS011;5216;54.602;18.356;2022-07-03T07:32:30;1.65;;;1.10;;
10341;SDS011;5216;54.602;18.356;2022-07-03T07:34:56;2.58;;;1.25;;
10341;SDS011;5216;54.602;18.356;2022-07-03T07:37:23;1.67;;;1.35;;
10341;SDS011;5216;54.602;18.356;2022-07-03T07:39:49;1.63;;;1.35;;
10341;SDS011;5216;54.602;18.356;2022-07-03T07:42:15;2.20;;;1.20;;
10341;SDS011;5216;54.602;18.356;2022-07-03T07:44:43;3.47;;;2.75;;
10341;SDS011;5216;54.602;18.356;2022-07-03T07:47:09;4.57;;;3.05;;
10341;SDS011;5216;54.602;18.356;2022-07-03T07:49:36;2.42;;;1.50;;
10341;SDS011;5216;54.602;18.356;2022-07-03T07:52:02;3.25;;;1.30;;
10341;SDS011;5216;54.602;18.356;2022-07-03T07:54:29;2.47;;;1.35;;
10341;SDS011;5216;54.602;18.356;2022-07-03T07:56:55;2.13;;;1.30;;
10341;SDS011;5216;54.602;18.356;2022-07-03T07:59:22;1.85;;;1.33;;
10341;SDS011;5216;54.602;18.356;2022-07-03T08:01:48;3.78;;;1.67;;
10341;SDS011;5216;54.602;18.356;2022-07-03T08:04:34;2.17;;;1.35;;
10341;SDS011;5216;54.602;18.356;2022-07-03T08:07:19;1.90;;;1.30;;
10341;SDS011;5216;54.602;18.356;2022-07-03T08:09:48;4.75;;;1.50;;
10341;SDS011;5216;54.602;18.356;2022-07-03T08:12:14;1.73;;;1.20;;
10341;SDS011;5216;54.602;18.356;2022-07-03T08:14:41;1.35;;;1.17;;
10341;SDS011;5216;54.602;18.356;2022-07-03T08:17:07;1.98;;;1.40;;
10341;SDS011;5216;54.602;18.356;2022-07-03T08:19:34;3.05;;;1.40;;
10341;SDS011;5216;54.602;18.356;2022-07-03T08:22:01;4.30;;;2.30;;
10341;SDS011;5216;54.602;18.356;2022-07-03T08:24:27;3.38;;;2.10;;
10341;SDS011;5216;54.602;18.356;2022-07-03T08:26:54;2.95;;;1.80;;
10341;SDS011;5216;54.602;18.356;2022-07-03T08:29:21;2.00;;;1.38;;
10341;SDS011;5216;54.602;18.356;2022-07-03T08:31:47;2.30;;;1.50;;
10341;SDS011;5216;54.602;18.356;2022-07-03T08:34:14;2.83;;;1.63;;
10341;SDS011;5216;54.602;18.356;2022-07-03T08:36:40;2.65;;;1.50;;
10341;SDS011;5216;54.602;18.356;2022-07-03T08:39:07;3.15;;;1.73;;
10341;SDS011;5216;54.602;18.356;2022-07-03T08:41:41;2.03;;;1.58;;
10341;SDS011;5216;54.602;18.356;2022-07-03T08:44:08;2.70;;;1.80;;
10341;SDS011;5216;54.602;18.356;2022-07-03T08:46:35;3.17;;;1.50;;
10341;SDS011;5216;54.602;18.356;2022-07-03T08:49:02;5.72;;;1.60;;
10341;SDS011;5216;54.602;18.356;2022-07-03T08:51:29;2.05;;;1.35;;
10341;SDS011;5216;54.602;18.356;2022-07-03T08:53:56;2.28;;;1.50;;
10341;SDS011;5216;54.602;18.356;2022-07-03T08:56:25;2.30;;;1.60;;
10341;SDS011;5216;54.602;18.356;2022-07-03T08:58:51;1.58;;;1.48;;
10341;SDS011;5216;54.602;18.356;2022-07-03T09:01:18;5.10;;;1.40;;
10341;SDS011;5216;54.602;18.356;2022-07-03T09:03:45;2.55;;;1.70;;
10341;SDS011;5216;54.602;18.356;2022-07-03T09:06:13;2.95;;;1.70;;
10341;SDS011;5216;54.602;18.356;2022-07-03T09:08:40;2.38;;;1.67;;
10341;SDS011;5216;54.602;18.356;2022-07-03T09:11:06;2.58;;;1.35;;
10341;SDS011;5216;54.602;18.356;2022-07-03T09:13:33;2.40;;;1.50;;
10341;SDS011;5216;54.602;18.356;2022-07-03T09:15:59;3.58;;;1.55;;
10341;SDS011;5216;54.602;18.356;2022-07-03T09:18:36;3.17;;;1.33;;
10341;SDS011;5216;54.602;18.356;2022-07-03T09:21:02;2.92;;;1.40;;
10341;SDS011;5216;54.602;18.356;2022-07-03T09:23:34;3.65;;;1.65;;
10341;SDS011;5216;54.602;18.356;2022-07-03T09:26:02;3.13;;;1.40;;
10341;SDS011;5216;54.602;18.356;2022-07-03T09:28:46;12.40;;;1.90;;
10341;SDS011;5216;54.602;18.356;2022-07-03T09:31:17;2.95;;;1.60;;
10341;SDS011;5216;54.602;18.356;2022-07-03T09:33:50;3.88;;;1.60;;
10341;SDS011;5216;54.602;18.356;2022-07-03T09:36:17;3.30;;;1.65;;
10341;SDS011;5216;54.602;18.356;2022-07-03T09:38:44;9.02;;;5.03;;
10341;SDS011;5216;54.602;18.356;2022-07-03T09:41:14;2.05;;;1.40;;
10341;SDS011;5216;54.602;18.356;2022-07-03T09:43:41;1.63;;;1.33;;
10341;SDS011;5216;54.602;18.356;2022-07-03T09:46:07;1.65;;;1.35;;
10341;SDS011;5216;54.602;18.356;2022-07-03T09:48:35;2.78;;;1.60;;
10341;SDS011;5216;54.602;18.356;2022-07-03T09:51:09;3.00;;;1.50;;
10341;SDS011;5216;54.602;18.356;2022-07-03T09:53:49;2.97;;;1.60;;
10341;SDS011;5216;54.602;18.356;2022-07-03T09:56:26;3.72;;;1.60;;
10341;SDS011;5216;54.602;18.356;2022-07-03T10:01:25;3.92;;;1.88;;
10341;SDS011;5216;54.602;18.356;2022-07-03T10:03:52;2.88;;;1.63;;
10341;SDS011;5216;54.602;18.356;2022-07-03T10:06:20;4.82;;;3.13;;
10341;SDS011;5216;54.602;18.356;2022-07-03T10:08:46;2.70;;;1.70;;
10341;SDS011;5216;54.602;18.356;2022-07-03T10:11:13;3.25;;;1.55;;
10341;SDS011;5216;54.602;18.356;2022-07-03T10:13:40;2.10;;;1.35;;
10341;SDS011;5216;54.602;18.356;2022-07-03T10:16:07;2.17;;;1.48;;
10341;SDS011;5216;54.602;18.356;2022-07-03T10:18:37;2.75;;;1.10;;
10341;SDS011;5216;54.602;18.356;2022-07-03T10:21:07;1.90;;;1.30;;
10341;SDS011;5216;54.602;18.356;2022-07-03T10:23:34;2.85;;;1.45;;
10341;SDS011;5216;54.602;18.356;2022-07-03T10:26:01;2.42;;;1.60;;
10341;SDS011;5216;54.602;18.356;2022-07-03T10:28:28;2.78;;;1.25;;
10341;SDS011;5216;54.602;18.356;2022-07-03T10:30:56;2.17;;;1.25;;
10341;SDS011;5216;54.602;18.356;2022-07-03T10:33:23;2.03;;;1.20;;
10341;SDS011;5216;54.602;18.356;2022-07-03T10:35:51;1.77;;;1.15;;
10341;SDS011;5216;54.602;18.356;2022-07-03T10:40:55;1.67;;;1.25;;
10341;SDS011;5216;54.602;18.356;2022-07-03T10:43:47;1.70;;;1.48;;
10341;SDS011;5216;54.602;18.356;2022-07-03T10:46:33;4.10;;;1.38;;
10341;SDS011;5216;54.602;18.356;2022-07-03T10:49:06;1.73;;;1.10;;
10341;SDS011;5216;54.602;18.356;2022-07-03T10:57:04;3.53;;;1.50;;
10341;SDS011;5216;54.602;18.356;2022-07-03T11:12:53;3.70;;;1.20;;
10341;SDS011;5216;54.602;18.356;2022-07-03T11:25:40;7.65;;;4.53;;
10341;SDS011;5216;54.602;18.356;2022-07-03T11:28:07;12.15;;;3.25;;
10341;SDS011;5216;54.602;18.356;2022-07-03T11:31:15;3.55;;;1.67;;
10341;SDS011;5216;54.602;18.356;2022-07-03T11:36:09;2.58;;;1.40;;
10341;SDS011;5216;54.602;18.356;2022-07-03T11:38:36;3.28;;;1.52;;
10341;SDS011;5216;54.602;18.356;2022-07-03T11:41:08;2.78;;;1.60;;
10341;SDS011;5216;54.602;18.356;2022-07-03T11:43:35;3.35;;;1.50;;
10341;SDS011;5216;54.602;18.356;2022-07-03T11:46:01;2.90;;;1.60;;
10341;SDS011;5216;54.602;18.356;2022-07-03T11:48:29;3.10;;;1.73;;
10341;SDS011;5216;54.602;18.356;2022-07-03T11:51:00;2.30;;;1.40;;
10341;SDS011;5216;54.602;18.356;2022-07-03T11:53:34;2.50;;;1.30;;
10341;SDS011;5216;54.602;18.356;2022-07-03T11:56:21;2.47;;;1.42;;
10341;SDS011;5216;54.602;18.356;2022-07-03T11:58:52;1.85;;;1.13;;
10341;SDS011;5216;54.602;18.356;2022-07-03T12:04:13;3.67;;;1.58;;
10341;SDS011;5216;54.602;18.356;2022-07-03T12:06:42;4.88;;;1.45;;
10341;SDS011;5216;54.602;18.356;2022-07-03T12:11:44;1.75;;;1.10;;
10341;SDS011;5216;54.602;18.356;2022-07-03T12:14:17;2.75;;;1.02;;
10341;SDS011;5216;54.602;18.356;2022-07-03T12:16:44;1.65;;;1.30;;
10341;SDS011;5216;54.602;18.356;2022-07-03T12:19:10;1.20;;;1.00;;
10341;SDS011;5216;54.602;18.356;2022-07-03T12:21:38;3.10;;;1.33;;
10341;SDS011;5216;54.602;18.356;2022-07-03T12:24:13;2.35;;;1.08;;
10341;SDS011;5216;54.602;18.356;2022-07-03T12:26:40;1.23;;;1.00;;
10341;SDS011;5216;54.602;18.356;2022-07-03T12:29:14;3.20;;;1.25;;
10341;SDS011;5216;54.602;18.356;2022-07-03T12:31:47;1.92;;;1.25;;
10341;SDS011;5216;54.602;18.356;2022-07-03T12:34:14;2.63;;;1.10;;
10341;SDS011;5216;54.602;18.356;2022-07-03T12:37:00;2.22;;;1.15;;
10341;SDS011;5216;54.602;18.356;2022-07-03T12:42:13;1.63;;;1.00;;
10341;SDS011;5216;54.602;18.356;2022-07-03T12:44:39;2.95;;;1.00;;
10341;SDS011;5216;54.602;18.356;2022-07-03T12:47:06;2.20;;;1.10;;
10341;SDS011;5216;54.602;18.356;2022-07-03T12:49:33;1.95;;;1.20;;
10341;SDS011;5216;54.602;18.356;2022-07-03T12:51:59;2.45;;;1.20;;
10341;SDS011;5216;54.602;18.356;2022-07-03T12:57:06;2.72;;;2.10;;
10341;SDS011;5216;54.602;18.356;2022-07-03T13:00:11;2.42;;;1.27;;
10341;SDS011;5216;54.602;18.356;2022-07-03T13:02:39;1.23;;;1.00;;
10341;SDS011;5216;54.602;18.356;2022-07-03T13:05:22;3.13;;;1.05;;
10341;SDS011;5216;54.602;18.356;2022-07-03T13:07:50;2.47;;;1.25;;
10341;SDS011;5216;54.602;18.356;2022-07-03T13:10:17;3.65;;;1.20;;
10341;SDS011;5216;54.602;18.356;2022-07-03T13:12:52;1.92;;;1.00;;
10341;SDS011;5216;54.602;18.356;2022-07-03T13:15:19;1.38;;;0.90;;
10341;SDS011;5216;54.602;18.356;2022-07-03T13:20:16;2.45;;;1.02;;
10341;SDS011;5216;54.602;18.356;2022-07-03T13:22:42;1.48;;;0.80;;
10341;SDS011;5216;54.602;18.356;2022-07-03T13:25:09;5.82;;;0.80;;
10341;SDS011;5216;54.602;18.356;2022-07-03T13:27:35;3.00;;;0.90;;
10341;SDS011;5216;54.602;18.356;2022-07-03T13:30:02;3.78;;;1.20;;
10341;SDS011;5216;54.602;18.356;2022-07-03T13:32:28;2.13;;;0.90;;
10341;SDS011;5216;54.602;18.356;2022-07-03T13:34:55;2.22;;;0.95;;
10341;SDS011;5216;54.602;18.356;2022-07-03T13:37:21;1.10;;;1.00;;
10341;SDS011;5216;54.602;18.356;2022-07-03T13:39:48;1.30;;;0.90;;
10341;SDS011;5216;54.602;18.356;2022-07-03T13:42:14;1.65;;;1.13;;
10341;SDS011;5216;54.602;18.356;2022-07-03T13:44:41;2.22;;;1.00;;
10341;SDS011;5216;54.602;18.356;2022-07-03T13:47:08;1.67;;;1.00;;
10341;SDS011;5216;54.602;18.356;2022-07-03T13:49:34;1.33;;;0.88;;
10341;SDS011;5216;54.602;18.356;2022-07-03T13:52:01;1.70;;;0.90;;
10341;SDS011;5216;54.602;18.356;2022-07-03T13:54:27;3.70;;;1.20;;
10341;SDS011;5216;54.602;18.356;2022-07-03T13:56:54;2.40;;;1.10;;
10341;SDS011;5216;54.602;18.356;2022-07-03T13:59:20;2.47;;;1.13;;
10341;SDS011;5216;54.602;18.356;2022-07-03T14:01:48;3.00;;;1.10;;
10341;SDS011;5216;54.602;18.356;2022-07-03T14:04:15;2.42;;;1.10;;
10341;SDS011;5216;54.602;18.356;2022-07-03T14:06:41;2.53;;;1.10;;
10341;SDS011;5216;54.602;18.356;2022-07-03T14:09:08;2.03;;;1.10;;
10341;SDS011;5216;54.602;18.356;2022-07-03T14:11:35;2.55;;;1.80;;
10341;SDS011;5216;54.602;18.356;2022-07-03T14:14:01;1.77;;;1.10;;
10341;SDS011;5216;54.602;18.356;2022-07-03T14:16:28;2.90;;;1.20;;
10341;SDS011;5216;54.602;18.356;2022-07-03T14:18:54;4.22;;;1.15;;
10341;SDS011;5216;54.602;18.356;2022-07-03T14:21:23;1.45;;;1.02;;
10341;SDS011;5216;54.602;18.356;2022-07-03T14:23:50;4.32;;;1.40;;
10341;SDS011;5216;54.602;18.356;2022-07-03T14:26:16;1.63;;;1.00;;
10341;SDS011;5216;54.602;18.356;2022-07-03T14:29:03;2.10;;;1.05;;
10341;SDS011;5216;54.602;18.356;2022-07-03T14:31:48;1.77;;;1.13;;
10341;SDS011;5216;54.602;18.356;2022-07-03T14:34:33;1.58;;;1.00;;
10341;SDS011;5216;54.602;18.356;2022-07-03T14:37:00;2.60;;;1.20;;
10341;SDS011;5216;54.602;18.356;2022-07-03T14:39:40;3.50;;;1.00;;
10341;SDS011;5216;54.602;18.356;2022-07-03T14:42:06;5.68;;;3.25;;
10341;SDS011;5216;54.602;18.356;2022-07-03T14:44:33;2.47;;;1.13;;
10341;SDS011;5216;54.602;18.356;2022-07-03T14:46:59;5.72;;;1.25;;
10341;SDS011;5216;54.602;18.356;2022-07-03T14:49:29;2.28;;;1.10;;
10341;SDS011;5216;54.602;18.356;2022-07-03T14:51:56;1.45;;;1.13;;
10341;SDS011;5216;54.602;18.356;2022-07-03T14:54:22;1.67;;;0.80;;
10341;SDS011;5216;54.602;18.356;2022-07-03T14:56:55;1.50;;;1.15;;
10341;SDS011;5216;54.602;18.356;2022-07-03T15:01:56;4.97;;;3.17;;
10341;SDS011;5216;54.602;18.356;2022-07-03T15:04:49;7.70;;;1.48;;
10341;SDS011;5216;54.602;18.356;2022-07-03T15:07:10;2.40;;;1.00;;
10341;SDS011;5216;54.602;18.356;2022-07-03T15:09:37;1.73;;;1.27;;
10341;SDS011;5216;54.602;18.356;2022-07-03T15:12:04;1.35;;;0.90;;
10341;SDS011;5216;54.602;18.356;2022-07-03T15:14:54;1.55;;;1.10;;
10341;SDS011;5216;54.602;18.356;2022-07-03T15:17:21;4.78;;;1.17;;
10341;SDS011;5216;54.602;18.356;2022-07-03T15:19:47;1.52;;;0.80;;
10341;SDS011;5216;54.602;18.356;2022-07-03T15:22:15;2.17;;;1.15;;
10341;SDS011;5216;54.602;18.356;2022-07-03T15:24:42;1.88;;;1.02;;
10341;SDS011;5216;54.602;18.356;2022-07-03T15:27:10;2.00;;;1.17;;
10341;SDS011;5216;54.602;18.356;2022-07-03T15:29:38;1.80;;;1.00;;
10341;SDS011;5216;54.602;18.356;2022-07-03T15:32:07;2.33;;;1.00;;
10341;SDS011;5216;54.602;18.356;2022-07-03T15:34:36;2.42;;;1.00;;
10341;SDS011;5216;54.602;18.356;2022-07-03T15:37:06;2.45;;;1.20;;
10341;SDS011;5216;54.602;18.356;2022-07-03T15:39:37;3.03;;;1.10;;
10341;SDS011;5216;54.602;18.356;2022-07-03T15:42:11;2.30;;;1.05;;
10341;SDS011;5216;54.602;18.356;2022-07-03T15:47:58;2.50;;;1.08;;
10341;SDS011;5216;54.602;18.356;2022-07-03T15:50:30;2.40;;;1.20;;
10341;SDS011;5216;54.602;18.356;2022-07-03T15:53:01;3.17;;;1.60;;
10341;SDS011;5216;54.602;18.356;2022-07-03T15:55:31;2.00;;;1.02;;
10341;SDS011;5216;54.602;18.356;2022-07-03T15:58:05;2.13;;;1.20;;
10341;SDS011;5216;54.602;18.356;2022-07-03T16:00:35;2.45;;;0.95;;
10341;SDS011;5216;54.602;18.356;2022-07-03T16:05:47;1.75;;;1.13;;
10341;SDS011;5216;54.602;18.356;2022-07-03T16:08:15;2.05;;;1.30;;
10341;SDS011;5216;54.602;18.356;2022-07-03T16:10:42;2.72;;;1.20;;